Kansas City International Airport
KMCI : now visible

Aeroporto :











RITROVATECI SU...

 
LOGIN :

Iscrizione | Disclaimer

   EN    FR    IT 

 









Sommario :    VFR   VFR Marginale   IFR   IFR Intensivo   IFR Molto Intensivo
Visibilità : 
Base nubi : 
>= 8 km
>= 3000ft
5 / 8 km
1000 / 3000 ft
1500m / 5 km
500 / 1000 ft
800 / 1500m
200 / 500 ft
< 800m
< 200 ft
Simboli :   Temporali  Nebbia  Neve Forte  Precipitazioni Forti  Vento > 20 kt






- Altitudine del aeroporto : 1026 ft
- Codice IATA : MCI


KMCI - Kansas City International

ULTIMO METAR :
  • 181953Z 31012G25KT 10SM FEW080 SCT160 M02/M10 A3028 RMK AO2 PK WND 30028/1919 SLP261 T10171100 $

METARs OBSOLETI :
  • 181853Z 29017G23KT 10SM FEW080 SCT160 M02/M08 A3028 RMK AO2 PK WND 30027/1756 SLP261 T10171083 $
  • 181753Z 30016G27KT 10SM SCT160 M03/M10 A3027 RMK AO2 PK WND 31028/1704 SLP260 60000 T10331100 10006 21050 51034

TAF KMCI
Valido dal 18 a 18 ore il 19 a 18 ore UTC


181720Z 1818/1918 31020G30KT P6SM SCT250
FM190000 32011KT P6SM SKC



MetMap, La meteo Aeronautica in un colpo d'occhio ! - Copyright ORBIFLY Dicembre 2007 - Disclaimer

ORBIFLY MET'MAP TEAM :

Programmazione e sviluppo : Alexandra Zaïnal
Concezione : Baudouin d'Aumeries
Aiuto per la programmazione : Marc-Olivier Méhu
Supporto tecnico e logistico : Manuel Goepfert
Aiuto per la traduzione : Arnaldo La Scala

Contatto : metmap@orbifly.com




FONTI E CREDITI :

   NOAA       Earth
Advisory